sensor_id;sensor_type;location;lat;lon;timestamp;P1;durP1;ratioP1;P2;durP2;ratioP2
60973;SDS011;46846;51.528;5.076;2023-02-24T00:01:44;87.28;;;81.15;;
60973;SDS011;46846;51.528;5.076;2023-02-24T00:04:16;84.28;;;78.78;;
60973;SDS011;46846;51.528;5.076;2023-02-24T00:06:44;78.65;;;74.00;;
60973;SDS011;46846;51.528;5.076;2023-02-24T00:09:14;82.88;;;76.85;;
60973;SDS011;46846;51.528;5.076;2023-02-24T00:11:45;77.07;;;71.90;;
60973;SDS011;46846;51.528;5.076;2023-02-24T00:14:13;78.10;;;73.50;;
60973;SDS011;46846;51.528;5.076;2023-02-24T00:16:40;80.85;;;75.55;;
60973;SDS011;46846;51.528;5.076;2023-02-24T00:19:07;81.35;;;76.38;;
60973;SDS011;46846;51.528;5.076;2023-02-24T00:21:35;80.60;;;75.32;;
60973;SDS011;46846;51.528;5.076;2023-02-24T00:24:03;82.07;;;76.85;;
60973;SDS011;46846;51.528;5.076;2023-02-24T00:26:30;78.97;;;74.00;;
60973;SDS011;46846;51.528;5.076;2023-02-24T00:28:56;75.50;;;70.95;;
60973;SDS011;46846;51.528;5.076;2023-02-24T00:31:24;81.93;;;75.78;;
60973;SDS011;46846;51.528;5.076;2023-02-24T00:33:50;86.10;;;80.43;;
60973;SDS011;46846;51.528;5.076;2023-02-24T00:36:19;81.65;;;76.10;;
60973;SDS011;46846;51.528;5.076;2023-02-24T00:38:52;77.45;;;72.93;;
60973;SDS011;46846;51.528;5.076;2023-02-24T00:41:29;82.45;;;77.50;;
60973;SDS011;46846;51.528;5.076;2023-02-24T00:43:56;84.75;;;78.75;;
60973;SDS011;46846;51.528;5.076;2023-02-24T00:46:30;75.65;;;71.05;;
60973;SDS011;46846;51.528;5.076;2023-02-24T00:48:59;75.03;;;70.32;;
60973;SDS011;46846;51.528;5.076;2023-02-24T00:51:30;80.03;;;74.93;;
60973;SDS011;46846;51.528;5.076;2023-02-24T00:54:00;78.05;;;72.13;;
60973;SDS011;46846;51.528;5.076;2023-02-24T00:56:27;87.40;;;81.82;;
60973;SDS011;46846;51.528;5.076;2023-02-24T00:58:54;83.90;;;78.88;;
60973;SDS011;46846;51.528;5.076;2023-02-24T01:01:22;85.63;;;80.07;;
60973;SDS011;46846;51.528;5.076;2023-02-24T01:03:49;86.13;;;79.95;;
60973;SDS011;46846;51.528;5.076;2023-02-24T01:06:18;76.97;;;72.43;;
60973;SDS011;46846;51.528;5.076;2023-02-24T01:08:49;82.70;;;77.35;;
60973;SDS011;46846;51.528;5.076;2023-02-24T01:11:17;86.93;;;81.70;;
60973;SDS011;46846;51.528;5.076;2023-02-24T01:14:03;82.60;;;77.90;;
60973;SDS011;46846;51.528;5.076;2023-02-24T01:16:30;80.78;;;75.07;;
60973;SDS011;46846;51.528;5.076;2023-02-24T01:21:22;75.88;;;71.43;;
60973;SDS011;46846;51.528;5.076;2023-02-24T01:23:48;84.53;;;79.63;;
60973;SDS011;46846;51.528;5.076;2023-02-24T01:26:14;79.65;;;74.68;;
60973;SDS011;46846;51.528;5.076;2023-02-24T01:28:41;80.97;;;76.15;;
60973;SDS011;46846;51.528;5.076;2023-02-24T01:31:07;80.97;;;75.90;;
60973;SDS011;46846;51.528;5.076;2023-02-24T01:33:33;79.38;;;74.50;;
60973;SDS011;46846;51.528;5.076;2023-02-24T01:36:11;81.88;;;75.70;;
60973;SDS011;46846;51.528;5.076;2023-02-24T01:38:39;76.07;;;71.38;;
60973;SDS011;46846;51.528;5.076;2023-02-24T01:41:06;80.63;;;75.57;;
60973;SDS011;46846;51.528;5.076;2023-02-24T01:43:52;82.65;;;77.65;;
60973;SDS011;46846;51.528;5.076;2023-02-24T01:46:22;80.45;;;75.57;;
60973;SDS011;46846;51.528;5.076;2023-02-24T01:48:51;85.70;;;80.35;;
60973;SDS011;46846;51.528;5.076;2023-02-24T01:51:22;83.97;;;79.03;;
60973;SDS011;46846;51.528;5.076;2023-02-24T01:53:48;77.90;;;73.40;;
60973;SDS011;46846;51.528;5.076;2023-02-24T01:56:15;80.85;;;75.78;;
60973;SDS011;46846;51.528;5.076;2023-02-24T02:01:07;68.68;;;64.68;;
60973;SDS011;46846;51.528;5.076;2023-02-24T02:03:35;82.07;;;76.82;;
60973;SDS011;46846;51.528;5.076;2023-02-24T02:06:05;82.55;;;77.72;;
60973;SDS011;46846;51.528;5.076;2023-02-24T02:08:35;80.75;;;75.28;;
60973;SDS011;46846;51.528;5.076;2023-02-24T02:11:08;79.43;;;74.18;;
60973;SDS011;46846;51.528;5.076;2023-02-24T02:13:37;81.63;;;76.85;;
60973;SDS011;46846;51.528;5.076;2023-02-24T02:16:16;83.00;;;77.95;;
60973;SDS011;46846;51.528;5.076;2023-02-24T02:24:41;79.57;;;74.80;;
60973;SDS011;46846;51.528;5.076;2023-02-24T02:35:46;79.15;;;74.43;;
60973;SDS011;46846;51.528;5.076;2023-02-24T02:38:39;74.32;;;69.95;;
60973;SDS011;46846;51.528;5.076;2023-02-24T02:41:20;80.22;;;74.93;;
60973;SDS011;46846;51.528;5.076;2023-02-24T02:43:50;82.43;;;76.85;;
60973;SDS011;46846;51.528;5.076;2023-02-24T02:47:10;74.10;;;69.43;;
60973;SDS011;46846;51.528;5.076;2023-02-24T02:49:43;76.95;;;72.50;;
60973;SDS011;46846;51.528;5.076;2023-02-24T02:52:12;72.80;;;68.38;;
60973;SDS011;46846;51.528;5.076;2023-02-24T02:54:47;81.05;;;76.35;;
60973;SDS011;46846;51.528;5.076;2023-02-24T02:57:25;73.72;;;69.38;;
60973;SDS011;46846;51.528;5.076;2023-02-24T03:02:38;65.88;;;61.95;;
60973;SDS011;46846;51.528;5.076;2023-02-24T03:05:09;75.18;;;70.75;;
60973;SDS011;46846;51.528;5.076;2023-02-24T03:07:41;74.55;;;70.07;;
60973;SDS011;46846;51.528;5.076;2023-02-24T03:10:11;74.72;;;70.43;;
60973;SDS011;46846;51.528;5.076;2023-02-24T03:13:00;70.25;;;66.05;;
60973;SDS011;46846;51.528;5.076;2023-02-24T03:15:30;71.00;;;66.70;;
60973;SDS011;46846;51.528;5.076;2023-02-24T03:18:00;80.55;;;75.88;;
60973;SDS011;46846;51.528;5.076;2023-02-24T03:20:41;81.80;;;77.05;;
60973;SDS011;46846;51.528;5.076;2023-02-24T03:23:14;72.82;;;67.93;;
60973;SDS011;46846;51.528;5.076;2023-02-24T03:28:42;70.93;;;66.22;;
60973;SDS011;46846;51.528;5.076;2023-02-24T03:31:17;72.75;;;68.43;;
60973;SDS011;46846;51.528;5.076;2023-02-24T03:33:54;75.05;;;69.53;;
60973;SDS011;46846;51.528;5.076;2023-02-24T03:36:26;81.10;;;76.20;;
60973;SDS011;46846;51.528;5.076;2023-02-24T03:38:52;76.15;;;71.72;;
60973;SDS011;46846;51.528;5.076;2023-02-24T03:41:18;73.80;;;69.28;;
60973;SDS011;46846;51.528;5.076;2023-02-24T03:43:44;76.25;;;71.22;;
60973;SDS011;46846;51.528;5.076;2023-02-24T03:46:12;77.18;;;71.38;;
60973;SDS011;46846;51.528;5.076;2023-02-24T03:48:41;78.95;;;73.32;;
60973;SDS011;46846;51.528;5.076;2023-02-24T03:51:18;80.63;;;74.68;;
60973;SDS011;46846;51.528;5.076;2023-02-24T03:56:54;67.82;;;63.42;;
60973;SDS011;46846;51.528;5.076;2023-02-24T04:02:07;73.55;;;68.60;;
60973;SDS011;46846;51.528;5.076;2023-02-24T04:04:44;71.35;;;67.03;;
60973;SDS011;46846;51.528;5.076;2023-02-24T04:12:29;73.50;;;68.82;;
60973;SDS011;46846;51.528;5.076;2023-02-24T04:15:06;72.93;;;68.35;;
60973;SDS011;46846;51.528;5.076;2023-02-24T04:17:59;73.65;;;69.20;;
60973;SDS011;46846;51.528;5.076;2023-02-24T04:20:29;68.72;;;64.43;;
60973;SDS011;46846;51.528;5.076;2023-02-24T04:23:07;74.65;;;70.43;;
60973;SDS011;46846;51.528;5.076;2023-02-24T04:25:39;73.70;;;68.78;;
60973;SDS011;46846;51.528;5.076;2023-02-24T04:28:11;65.00;;;61.22;;
60973;SDS011;46846;51.528;5.076;2023-02-24T04:30:39;79.85;;;74.88;;
60973;SDS011;46846;51.528;5.076;2023-02-24T04:33:08;66.85;;;62.70;;
60973;SDS011;46846;51.528;5.076;2023-02-24T04:35:34;68.32;;;63.92;;
60973;SDS011;46846;51.528;5.076;2023-02-24T04:37:59;72.05;;;67.95;;
60973;SDS011;46846;51.528;5.076;2023-02-24T04:40:25;71.68;;;67.28;;
60973;SDS011;46846;51.528;5.076;2023-02-24T04:42:52;72.85;;;68.68;;
60973;SDS011;46846;51.528;5.076;2023-02-24T04:45:20;72.38;;;68.13;;
60973;SDS011;46846;51.528;5.076;2023-02-24T04:47:47;78.15;;;73.57;;
60973;SDS011;46846;51.528;5.076;2023-02-24T04:50:15;69.05;;;64.75;;
60973;SDS011;46846;51.528;5.076;2023-02-24T04:52:54;75.95;;;71.53;;
60973;SDS011;46846;51.528;5.076;2023-02-24T04:55:23;69.38;;;64.90;;
60973;SDS011;46846;51.528;5.076;2023-02-24T04:57:53;74.45;;;69.20;;
60973;SDS011;46846;51.528;5.076;2023-02-24T05:00:19;77.90;;;72.35;;
60973;SDS011;46846;51.528;5.076;2023-02-24T05:02:49;78.28;;;73.55;;
60973;SDS011;46846;51.528;5.076;2023-02-24T05:05:16;75.95;;;70.53;;
60973;SDS011;46846;51.528;5.076;2023-02-24T05:07:50;74.30;;;69.55;;
60973;SDS011;46846;51.528;5.076;2023-02-24T05:10:16;68.38;;;63.75;;
60973;SDS011;46846;51.528;5.076;2023-02-24T05:12:43;79.35;;;74.78;;
60973;SDS011;46846;51.528;5.076;2023-02-24T05:15:08;72.18;;;67.93;;
60973;SDS011;46846;51.528;5.076;2023-02-24T05:17:36;77.07;;;72.25;;
60973;SDS011;46846;51.528;5.076;2023-02-24T05:20:02;66.15;;;62.25;;
60973;SDS011;46846;51.528;5.076;2023-02-24T05:22:48;69.30;;;65.30;;
60973;SDS011;46846;51.528;5.076;2023-02-24T05:25:18;67.35;;;63.30;;
60973;SDS011;46846;51.528;5.076;2023-02-24T05:27:44;77.93;;;72.82;;
60973;SDS011;46846;51.528;5.076;2023-02-24T05:30:11;70.85;;;66.60;;
60973;SDS011;46846;51.528;5.076;2023-02-24T05:32:38;71.68;;;65.90;;
60973;SDS011;46846;51.528;5.076;2023-02-24T05:37:30;66.93;;;62.55;;
60973;SDS011;46846;51.528;5.076;2023-02-24T05:39:58;65.45;;;61.47;;
60973;SDS011;46846;51.528;5.076;2023-02-24T05:42:27;70.65;;;66.50;;
60973;SDS011;46846;51.528;5.076;2023-02-24T05:44:58;70.15;;;65.93;;
60973;SDS011;46846;51.528;5.076;2023-02-24T05:47:24;71.68;;;67.28;;
60973;SDS011;46846;51.528;5.076;2023-02-24T05:49:51;74.00;;;69.30;;
60973;SDS011;46846;51.528;5.076;2023-02-24T05:52:18;71.28;;;66.45;;
60973;SDS011;46846;51.528;5.076;2023-02-24T05:57:13;70.00;;;65.60;;
60973;SDS011;46846;51.528;5.076;2023-02-24T05:59:43;70.97;;;66.70;;
60973;SDS011;46846;51.528;5.076;2023-02-24T06:02:09;68.07;;;63.55;;
60973;SDS011;46846;51.528;5.076;2023-02-24T06:04:37;66.85;;;63.00;;
60973;SDS011;46846;51.528;5.076;2023-02-24T06:07:14;72.13;;;67.72;;
60973;SDS011;46846;51.528;5.076;2023-02-24T06:09:49;68.38;;;63.72;;
60973;SDS011;46846;51.528;5.076;2023-02-24T06:12:18;67.95;;;64.00;;
60973;SDS011;46846;51.528;5.076;2023-02-24T06:14:54;69.47;;;64.78;;
60973;SDS011;46846;51.528;5.076;2023-02-24T06:17:22;67.88;;;64.00;;
60973;SDS011;46846;51.528;5.076;2023-02-24T06:19:49;77.05;;;72.45;;
60973;SDS011;46846;51.528;5.076;2023-02-24T06:22:17;68.78;;;64.57;;
60973;SDS011;46846;51.528;5.076;2023-02-24T06:24:44;69.00;;;64.93;;
60973;SDS011;46846;51.528;5.076;2023-02-24T06:27:17;70.80;;;66.25;;
60973;SDS011;46846;51.528;5.076;2023-02-24T06:29:47;69.13;;;65.18;;
60973;SDS011;46846;51.528;5.076;2023-02-24T06:32:19;73.80;;;69.53;;
60973;SDS011;46846;51.528;5.076;2023-02-24T06:34:47;69.25;;;63.97;;
60973;SDS011;46846;51.528;5.076;2023-02-24T06:37:13;70.78;;;66.15;;
60973;SDS011;46846;51.528;5.076;2023-02-24T06:39:39;72.13;;;67.18;;
60973;SDS011;46846;51.528;5.076;2023-02-24T06:42:05;69.20;;;65.18;;
60973;SDS011;46846;51.528;5.076;2023-02-24T06:44:33;66.80;;;62.63;;
60973;SDS011;46846;51.528;5.076;2023-02-24T06:47:00;70.43;;;65.18;;
60973;SDS011;46846;51.528;5.076;2023-02-24T06:49:26;66.43;;;62.30;;
60973;SDS011;46846;51.528;5.076;2023-02-24T06:51:52;64.88;;;60.47;;
60973;SDS011;46846;51.528;5.076;2023-02-24T06:56:46;68.03;;;64.05;;
60973;SDS011;46846;51.528;5.076;2023-02-24T06:59:15;64.55;;;60.78;;
60973;SDS011;46846;51.528;5.076;2023-02-24T07:01:46;67.53;;;62.95;;
60973;SDS011;46846;51.528;5.076;2023-02-24T07:04:12;71.10;;;66.53;;
60973;SDS011;46846;51.528;5.076;2023-02-24T07:06:40;67.35;;;62.88;;
60973;SDS011;46846;51.528;5.076;2023-02-24T07:09:08;71.35;;;66.80;;
60973;SDS011;46846;51.528;5.076;2023-02-24T07:11:35;71.65;;;66.90;;
60973;SDS011;46846;51.528;5.076;2023-02-24T07:14:02;75.47;;;70.43;;
60973;SDS011;46846;51.528;5.076;2023-02-24T07:16:29;72.38;;;67.60;;
60973;SDS011;46846;51.528;5.076;2023-02-24T07:18:56;64.88;;;61.15;;
60973;SDS011;46846;51.528;5.076;2023-02-24T07:21:24;69.50;;;65.47;;
60973;SDS011;46846;51.528;5.076;2023-02-24T07:23:51;65.57;;;61.60;;
60973;SDS011;46846;51.528;5.076;2023-02-24T07:26:21;67.45;;;63.45;;
60973;SDS011;46846;51.528;5.076;2023-02-24T07:28:51;72.00;;;66.90;;
60973;SDS011;46846;51.528;5.076;2023-02-24T07:31:19;72.53;;;67.72;;
60973;SDS011;46846;51.528;5.076;2023-02-24T07:33:47;70.00;;;65.82;;
60973;SDS011;46846;51.528;5.076;2023-02-24T07:36:16;70.50;;;65.82;;
60973;SDS011;46846;51.528;5.076;2023-02-24T07:38:47;71.45;;;67.00;;
60973;SDS011;46846;51.528;5.076;2023-02-24T07:41:16;71.05;;;66.25;;
60973;SDS011;46846;51.528;5.076;2023-02-24T07:43:46;72.13;;;67.22;;
60973;SDS011;46846;51.528;5.076;2023-02-24T07:46:15;68.72;;;63.63;;
60973;SDS011;46846;51.528;5.076;2023-02-24T07:48:45;63.78;;;59.35;;
60973;SDS011;46846;51.528;5.076;2023-02-24T07:51:12;69.78;;;65.55;;
60973;SDS011;46846;51.528;5.076;2023-02-24T07:53:39;71.28;;;67.13;;
60973;SDS011;46846;51.528;5.076;2023-02-24T07:56:06;67.35;;;62.88;;
60973;SDS011;46846;51.528;5.076;2023-02-24T07:58:38;66.60;;;62.60;;
60973;SDS011;46846;51.528;5.076;2023-02-24T08:01:06;72.05;;;67.00;;
60973;SDS011;46846;51.528;5.076;2023-02-24T08:03:36;69.53;;;64.47;;
60973;SDS011;46846;51.528;5.076;2023-02-24T08:06:08;67.10;;;63.28;;
60973;SDS011;46846;51.528;5.076;2023-02-24T08:08:40;66.68;;;62.67;;
60973;SDS011;46846;51.528;5.076;2023-02-24T08:11:34;66.22;;;61.90;;
60973;SDS011;46846;51.528;5.076;2023-02-24T08:14:03;60.78;;;56.65;;
60973;SDS011;46846;51.528;5.076;2023-02-24T08:16:38;61.13;;;57.45;;
60973;SDS011;46846;51.528;5.076;2023-02-24T08:19:10;64.97;;;60.67;;
60973;SDS011;46846;51.528;5.076;2023-02-24T08:21:41;66.82;;;63.00;;
60973;SDS011;46846;51.528;5.076;2023-02-24T08:24:14;66.65;;;62.35;;
60973;SDS011;46846;51.528;5.076;2023-02-24T08:26:48;64.25;;;59.70;;
60973;SDS011;46846;51.528;5.076;2023-02-24T08:29:38;61.40;;;57.80;;
60973;SDS011;46846;51.528;5.076;2023-02-24T08:32:41;72.22;;;67.78;;
60973;SDS011;46846;51.528;5.076;2023-02-24T08:35:17;67.35;;;63.10;;
60973;SDS011;46846;51.528;5.076;2023-02-24T08:37:45;68.75;;;64.30;;
60973;SDS011;46846;51.528;5.076;2023-02-24T08:40:15;65.97;;;61.05;;
60973;SDS011;46846;51.528;5.076;2023-02-24T08:43:05;66.80;;;62.88;;
60973;SDS011;46846;51.528;5.076;2023-02-24T08:45:55;65.90;;;61.70;;
60973;SDS011;46846;51.528;5.076;2023-02-24T08:48:32;70.25;;;65.85;;
60973;SDS011;46846;51.528;5.076;2023-02-24T08:54:08;70.28;;;65.72;;
60973;SDS011;46846;51.528;5.076;2023-02-24T08:56:40;65.55;;;61.75;;
60973;SDS011;46846;51.528;5.076;2023-02-24T08:59:13;67.65;;;63.65;;
60973;SDS011;46846;51.528;5.076;2023-02-24T09:01:56;68.20;;;64.03;;
60973;SDS011;46846;51.528;5.076;2023-02-24T09:04:43;64.88;;;61.08;;
60973;SDS011;46846;51.528;5.076;2023-02-24T09:07:14;64.72;;;59.85;;
60973;SDS011;46846;51.528;5.076;2023-02-24T09:09:41;66.53;;;62.72;;
60973;SDS011;46846;51.528;5.076;2023-02-24T09:12:07;66.95;;;63.10;;
60973;SDS011;46846;51.528;5.076;2023-02-24T09:14:46;69.55;;;64.40;;
60973;SDS011;46846;51.528;5.076;2023-02-24T09:17:13;70.15;;;65.80;;
60973;SDS011;46846;51.528;5.076;2023-02-24T09:22:12;67.20;;;62.47;;
60973;SDS011;46846;51.528;5.076;2023-02-24T09:24:58;69.43;;;64.82;;
60973;SDS011;46846;51.528;5.076;2023-02-24T09:28:03;70.38;;;66.32;;
60973;SDS011;46846;51.528;5.076;2023-02-24T09:30:35;65.85;;;62.08;;
60973;SDS011;46846;51.528;5.076;2023-02-24T09:33:07;69.95;;;65.70;;
60973;SDS011;46846;51.528;5.076;2023-02-24T09:36:02;65.53;;;61.72;;
60973;SDS011;46846;51.528;5.076;2023-02-24T09:38:34;68.38;;;64.07;;
60973;SDS011;46846;51.528;5.076;2023-02-24T09:44:27;62.30;;;58.58;;
60973;SDS011;46846;51.528;5.076;2023-02-24T09:46:55;63.97;;;59.92;;
60973;SDS011;46846;51.528;5.076;2023-02-24T09:49:32;65.00;;;61.22;;
60973;SDS011;46846;51.528;5.076;2023-02-24T09:52:14;63.67;;;60.00;;
60973;SDS011;46846;51.528;5.076;2023-02-24T09:54:42;70.70;;;65.95;;
60973;SDS011;46846;51.528;5.076;2023-02-24T09:57:31;60.78;;;57.03;;
60973;SDS011;46846;51.528;5.076;2023-02-24T10:00:26;58.67;;;55.28;;
60973;SDS011;46846;51.528;5.076;2023-02-24T10:08:37;64.30;;;60.05;;
60973;SDS011;46846;51.528;5.076;2023-02-24T10:11:06;69.97;;;65.78;;
60973;SDS011;46846;51.528;5.076;2023-02-24T10:13:37;65.53;;;60.88;;
60973;SDS011;46846;51.528;5.076;2023-02-24T10:16:12;72.00;;;67.07;;
60973;SDS011;46846;51.528;5.076;2023-02-24T10:18:51;69.70;;;65.47;;
60973;SDS011;46846;51.528;5.076;2023-02-24T10:24:38;67.43;;;62.45;;
60973;SDS011;46846;51.528;5.076;2023-02-24T10:33:08;65.57;;;61.70;;
60973;SDS011;46846;51.528;5.076;2023-02-24T10:35:40;71.10;;;66.82;;
60973;SDS011;46846;51.528;5.076;2023-02-24T10:38:07;66.07;;;61.28;;
60973;SDS011;46846;51.528;5.076;2023-02-24T10:40:42;72.90;;;67.95;;
60973;SDS011;46846;51.528;5.076;2023-02-24T10:43:21;69.03;;;64.55;;
60973;SDS011;46846;51.528;5.076;2023-02-24T10:45:54;64.20;;;59.65;;
60973;SDS011;46846;51.528;5.076;2023-02-24T10:48:30;66.97;;;63.00;;
60973;SDS011;46846;51.528;5.076;2023-02-24T10:51:06;71.15;;;66.57;;
60973;SDS011;46846;51.528;5.076;2023-02-24T10:53:44;67.68;;;63.33;;
60973;SDS011;46846;51.528;5.076;2023-02-24T10:56:17;73.18;;;68.32;;
60973;SDS011;46846;51.528;5.076;2023-02-24T10:59:07;75.50;;;70.57;;
60973;SDS011;46846;51.528;5.076;2023-02-24T11:01:53;73.38;;;68.97;;
60973;SDS011;46846;51.528;5.076;2023-02-24T11:04:34;63.10;;;58.80;;
60973;SDS011;46846;51.528;5.076;2023-02-24T11:07:33;65.57;;;61.63;;
60973;SDS011;46846;51.528;5.076;2023-02-24T11:10:16;67.93;;;63.45;;
60973;SDS011;46846;51.528;5.076;2023-02-24T11:12:50;67.97;;;63.88;;
60973;SDS011;46846;51.528;5.076;2023-02-24T11:15:51;69.75;;;65.05;;
60973;SDS011;46846;51.528;5.076;2023-02-24T11:18:38;69.57;;;64.60;;
60973;SDS011;46846;51.528;5.076;2023-02-24T11:23:32;68.90;;;64.43;;
60973;SDS011;46846;51.528;5.076;2023-02-24T11:26:05;69.72;;;65.43;;
60973;SDS011;46846;51.528;5.076;2023-02-24T11:28:49;71.95;;;65.93;;
60973;SDS011;46846;51.528;5.076;2023-02-24T11:31:43;61.45;;;57.72;;
60973;SDS011;46846;51.528;5.076;2023-02-24T11:42:53;70.10;;;65.60;;
60973;SDS011;46846;51.528;5.076;2023-02-24T11:48:20;68.70;;;64.72;;
60973;SDS011;46846;51.528;5.076;2023-02-24T11:51:00;63.67;;;59.67;;
60973;SDS011;46846;51.528;5.076;2023-02-24T11:53:41;66.78;;;61.90;;
60973;SDS011;46846;51.528;5.076;2023-02-24T11:56:22;70.13;;;65.75;;
60973;SDS011;46846;51.528;5.076;2023-02-24T11:59:07;66.65;;;62.28;;
60973;SDS011;46846;51.528;5.076;2023-02-24T12:01:39;68.25;;;63.28;;
60973;SDS011;46846;51.528;5.076;2023-02-24T12:07:14;66.20;;;61.90;;
60973;SDS011;46846;51.528;5.076;2023-02-24T12:12:38;70.10;;;65.47;;
60973;SDS011;46846;51.528;5.076;2023-02-24T12:15:12;68.20;;;64.10;;
60973;SDS011;46846;51.528;5.076;2023-02-24T12:17:48;71.95;;;66.45;;
60973;SDS011;46846;51.528;5.076;2023-02-24T12:20:37;73.75;;;69.20;;
60973;SDS011;46846;51.528;5.076;2023-02-24T12:23:16;71.05;;;65.35;;
60973;SDS011;46846;51.528;5.076;2023-02-24T12:33:51;68.75;;;64.75;;
60973;SDS011;46846;51.528;5.076;2023-02-24T12:36:30;72.85;;;67.57;;
60973;SDS011;46846;51.528;5.076;2023-02-24T12:47:05;70.25;;;65.75;;
60973;SDS011;46846;51.528;5.076;2023-02-24T12:52:40;68.88;;;64.63;;
60973;SDS011;46846;51.528;5.076;2023-02-24T13:00:20;77.60;;;72.78;;
60973;SDS011;46846;51.528;5.076;2023-02-24T13:08:38;68.82;;;64.78;;
60973;SDS011;46846;51.528;5.076;2023-02-24T13:11:20;71.40;;;66.97;;
60973;SDS011;46846;51.528;5.076;2023-02-24T13:19:29;73.05;;;68.32;;
60973;SDS011;46846;51.528;5.076;2023-02-24T13:24:43;73.88;;;69.43;;
60973;SDS011;46846;51.528;5.076;2023-02-24T13:27:23;72.45;;;68.28;;
60973;SDS011;46846;51.528;5.076;2023-02-24T13:29:51;71.15;;;66.78;;
60973;SDS011;46846;51.528;5.076;2023-02-24T13:34:58;67.85;;;63.90;;
60973;SDS011;46846;51.528;5.076;2023-02-24T13:37:28;72.13;;;67.95;;
60973;SDS011;46846;51.528;5.076;2023-02-24T13:39:55;67.88;;;63.97;;
60973;SDS011;46846;51.528;5.076;2023-02-24T13:42:27;76.95;;;72.47;;
60973;SDS011;46846;51.528;5.076;2023-02-24T13:45:15;71.35;;;66.97;;
60973;SDS011;46846;51.528;5.076;2023-02-24T13:50:52;71.22;;;67.10;;
60973;SDS011;46846;51.528;5.076;2023-02-24T13:56:08;67.22;;;63.30;;
60973;SDS011;46846;51.528;5.076;2023-02-24T14:04:56;69.10;;;64.78;;
60973;SDS011;46846;51.528;5.076;2023-02-24T14:07:26;74.63;;;69.65;;
60973;SDS011;46846;51.528;5.076;2023-02-24T14:09:59;77.55;;;72.90;;
60973;SDS011;46846;51.528;5.076;2023-02-24T14:12:30;75.80;;;71.28;;
60973;SDS011;46846;51.528;5.076;2023-02-24T14:14:59;70.35;;;66.15;;
60973;SDS011;46846;51.528;5.076;2023-02-24T14:19:55;71.80;;;67.28;;
60973;SDS011;46846;51.528;5.076;2023-02-24T14:22:31;81.28;;;76.47;;
60973;SDS011;46846;51.528;5.076;2023-02-24T14:25:01;70.53;;;66.40;;
60973;SDS011;46846;51.528;5.076;2023-02-24T14:27:28;72.40;;;68.15;;
60973;SDS011;46846;51.528;5.076;2023-02-24T14:29:53;81.45;;;75.53;;
60973;SDS011;46846;51.528;5.076;2023-02-24T14:34:46;68.38;;;64.30;;
60973;SDS011;46846;51.528;5.076;2023-02-24T14:37:12;70.43;;;65.97;;
60973;SDS011;46846;51.528;5.076;2023-02-24T14:39:47;72.60;;;68.30;;
60973;SDS011;46846;51.528;5.076;2023-02-24T14:42:16;73.10;;;68.82;;
60973;SDS011;46846;51.528;5.076;2023-02-24T14:44:50;82.60;;;77.00;;
60973;SDS011;46846;51.528;5.076;2023-02-24T14:47:18;78.25;;;72.72;;
60973;SDS011;46846;51.528;5.076;2023-02-24T14:55:04;77.50;;;72.03;;
60973;SDS011;46846;51.528;5.076;2023-02-24T14:57:33;73.70;;;69.22;;
60973;SDS011;46846;51.528;5.076;2023-02-24T15:00:06;77.32;;;72.68;;
60973;SDS011;46846;51.528;5.076;2023-02-24T15:02:42;75.82;;;71.13;;
60973;SDS011;46846;51.528;5.076;2023-02-24T15:05:12;79.75;;;74.13;;
60973;SDS011;46846;51.528;5.076;2023-02-24T15:07:37;78.80;;;74.05;;
60973;SDS011;46846;51.528;5.076;2023-02-24T15:10:04;84.53;;;77.93;;
60973;SDS011;46846;51.528;5.076;2023-02-24T15:15:24;78.38;;;73.57;;
60973;SDS011;46846;51.528;5.076;2023-02-24T15:17:53;79.65;;;72.95;;
60973;SDS011;46846;51.528;5.076;2023-02-24T15:20:32;75.95;;;70.25;;
60973;SDS011;46846;51.528;5.076;2023-02-24T15:22:59;74.07;;;69.38;;
60973;SDS011;46846;51.528;5.076;2023-02-24T15:25:29;70.72;;;66.47;;
60973;SDS011;46846;51.528;5.076;2023-02-24T15:28:05;72.63;;;67.95;;
60973;SDS011;46846;51.528;5.076;2023-02-24T15:30:39;72.93;;;68.32;;
60973;SDS011;46846;51.528;5.076;2023-02-24T15:33:22;71.10;;;66.63;;
60973;SDS011;46846;51.528;5.076;2023-02-24T15:35:53;75.32;;;70.75;;
60973;SDS011;46846;51.528;5.076;2023-02-24T15:38:23;77.72;;;72.82;;
60973;SDS011;46846;51.528;5.076;2023-02-24T15:40:54;72.60;;;68.20;;
60973;SDS011;46846;51.528;5.076;2023-02-24T15:43:30;71.97;;;67.35;;
60973;SDS011;46846;51.528;5.076;2023-02-24T15:45:58;71.60;;;67.35;;
60973;SDS011;46846;51.528;5.076;2023-02-24T15:48:24;68.47;;;64.10;;
60973;SDS011;46846;51.528;5.076;2023-02-24T15:50:53;71.65;;;65.75;;
60973;SDS011;46846;51.528;5.076;2023-02-24T15:53:22;72.88;;;67.43;;
60973;SDS011;46846;51.528;5.076;2023-02-24T15:55:48;72.50;;;68.03;;
60973;SDS011;46846;51.528;5.076;2023-02-24T15:58:17;68.20;;;63.92;;
60973;SDS011;46846;51.528;5.076;2023-02-24T16:00:45;74.70;;;69.88;;
60973;SDS011;46846;51.528;5.076;2023-02-24T16:03:11;73.00;;;67.82;;
60973;SDS011;46846;51.528;5.076;2023-02-24T16:05:37;73.68;;;69.50;;
60973;SDS011;46846;51.528;5.076;2023-02-24T16:08:02;76.18;;;71.40;;
60973;SDS011;46846;51.528;5.076;2023-02-24T16:10:28;70.43;;;66.35;;
60973;SDS011;46846;51.528;5.076;2023-02-24T16:12:55;73.22;;;68.07;;
60973;SDS011;46846;51.528;5.076;2023-02-24T16:15:30;77.20;;;72.75;;
60973;SDS011;46846;51.528;5.076;2023-02-24T16:17:59;72.15;;;67.30;;
60973;SDS011;46846;51.528;5.076;2023-02-24T16:20:28;75.57;;;70.88;;
60973;SDS011;46846;51.528;5.076;2023-02-24T16:23:00;75.63;;;70.90;;
60973;SDS011;46846;51.528;5.076;2023-02-24T16:25:28;73.30;;;68.82;;
60973;SDS011;46846;51.528;5.076;2023-02-24T16:28:02;80.00;;;74.93;;
60973;SDS011;46846;51.528;5.076;2023-02-24T16:30:28;76.28;;;71.82;;
60973;SDS011;46846;51.528;5.076;2023-02-24T16:32:55;73.35;;;69.03;;
60973;SDS011;46846;51.528;5.076;2023-02-24T16:35:21;70.22;;;65.53;;
60973;SDS011;46846;51.528;5.076;2023-02-24T16:37:47;70.28;;;65.53;;
60973;SDS011;46846;51.528;5.076;2023-02-24T16:40:20;76.10;;;71.75;;
60973;SDS011;46846;51.528;5.076;2023-02-24T16:42:49;71.05;;;66.95;;
60973;SDS011;46846;51.528;5.076;2023-02-24T16:45:16;74.50;;;69.38;;
60973;SDS011;46846;51.528;5.076;2023-02-24T16:47:41;66.65;;;62.83;;
60973;SDS011;46846;51.528;5.076;2023-02-24T16:50:10;69.63;;;64.93;;
60973;SDS011;46846;51.528;5.076;2023-02-24T16:52:43;82.83;;;76.20;;
60973;SDS011;46846;51.528;5.076;2023-02-24T16:55:11;74.60;;;70.20;;
60973;SDS011;46846;51.528;5.076;2023-02-24T16:57:38;75.95;;;71.50;;
60973;SDS011;46846;51.528;5.076;2023-02-24T17:00:04;75.22;;;70.45;;
60973;SDS011;46846;51.528;5.076;2023-02-24T17:02:30;72.55;;;68.13;;
60973;SDS011;46846;51.528;5.076;2023-02-24T17:04:55;71.75;;;67.00;;
60973;SDS011;46846;51.528;5.076;2023-02-24T17:07:21;70.40;;;66.20;;
60973;SDS011;46846;51.528;5.076;2023-02-24T17:09:46;69.53;;;65.25;;
60973;SDS011;46846;51.528;5.076;2023-02-24T17:12:12;67.10;;;63.28;;
60973;SDS011;46846;51.528;5.076;2023-02-24T17:14:39;68.90;;;64.63;;
60973;SDS011;46846;51.528;5.076;2023-02-24T17:17:04;69.93;;;65.20;;
60973;SDS011;46846;51.528;5.076;2023-02-24T17:19:29;72.07;;;67.75;;
60973;SDS011;46846;51.528;5.076;2023-02-24T17:21:55;75.15;;;70.63;;